Time;durP1;ratioP1;P1;durP2;ratioP2;P2;SDS_P1;SDS_P2;PMS_P1;PMS_P2;Temp;Humidity;BMP_temperature;BMP_pressure;BME280_temperature;BME280_humidity;BME280_pressure;Samples;Min_cycle;Max_cycle;Signal;HPM_P1;HPM_P2
2023/11/26 00:00:28;;;;;;;;;27.00;25.75;;;;;;;;5047539;28;11468;-82
2023/11/26 00:02:55;;;;;;;;;30.25;24.75;;;;;;;;5048769;28;11557;-83
2023/11/26 00:05:23;;;;;;;;;32.00;26.50;;;;;;;;5048232;28;11550;-83
2023/11/26 00:07:51;;;;;;;;;29.25;28.00;;;;;;;;5048580;28;11602;-82
2023/11/26 00:10:19;;;;;;;;;27.33;27.33;;;;;;;;5047324;28;11568;-83
2023/11/26 00:12:46;;;;;;;;;26.50;23.75;;;;;;;;5048839;28;11592;-82
2023/11/26 00:15:14;;;;;;;;;25.25;24.25;;;;;;;;5048394;28;11714;-82
2023/11/26 00:17:42;;;;;;;;;22.00;20.00;;;;;;;;5048369;28;11611;-83
2023/11/26 00:20:10;;;;;;;;;25.00;25.00;;;;;;;;5048462;28;11576;-83
2023/11/26 00:22:37;;;;;;;;;24.67;24.67;;;;;;;;5049980;28;11583;-83
2023/11/26 00:25:07;;;;;;;;;26.00;26.00;;;;;;;;5052073;28;11547;-79
2023/11/26 00:27:34;;;;;;;;;31.00;29.00;;;;;;;;5069048;28;11590;-78
2023/11/26 00:30:03;;;;;;;;;28.50;28.50;;;;;;;;5058294;28;11569;-83
2023/11/26 00:32:30;;;;;;;;;34.00;26.50;;;;;;;;5049836;28;11610;-83
2023/11/26 00:34:57;;;;;;;;;19.00;18.00;;;;;;;;5048627;28;11610;-83
2023/11/26 00:37:24;;;;;;;;;30.50;21.50;;;;;;;;5048837;28;11581;-82
2023/11/26 00:39:52;;;;;;;;;15.75;15.75;;;;;;;;5050313;28;11584;-80
2023/11/26 00:42:23;;;;;;;;;25.75;23.00;;;;;;;;5052249;28;11580;-82
2023/11/26 00:44:51;;;;;;;;;24.25;20.25;;;;;;;;5052670;28;11576;-80
2023/11/26 00:47:19;;;;;;;;;23.75;21.00;;;;;;;;5052127;28;11555;-81
2023/11/26 00:49:47;;;;;;;;;27.25;24.00;;;;;;;;5052882;28;11593;-80
2023/11/26 00:52:17;;;;;;;;;25.75;24.25;;;;;;;;5051890;28;11565;-80
2023/11/26 00:54:45;;;;;;;;;26.25;24.75;;;;;;;;5052432;28;11568;-81
2023/11/26 00:57:12;;;;;;;;;29.75;24.50;;;;;;;;5051201;28;11544;-80
2023/11/26 00:59:41;;;;;;;;;28.00;24.75;;;;;;;;5053547;28;11696;-79
2023/11/26 01:02:09;;;;;;;;;29.75;29.75;;;;;;;;5053551;28;12321;-83
2023/11/26 01:04:36;;;;;;;;;28.00;27.50;;;;;;;;5056696;28;12435;-80
2023/11/26 01:07:05;;;;;;;;;27.00;27.00;;;;;;;;5054060;28;11597;-82
2023/11/26 01:09:33;;;;;;;;;33.67;32.33;;;;;;;;5055914;28;11585;-81
2023/11/26 01:12:00;;;;;;;;;29.33;27.33;;;;;;;;5056336;28;11614;-82
2023/11/26 01:14:27;;;;;;;;;25.33;22.67;;;;;;;;5057986;28;11591;-82
2023/11/26 01:16:56;;;;;;;;;32.67;29.67;;;;;;;;5058700;28;11564;-83
2023/11/26 01:19:23;;;;;;;;;32.67;29.33;;;;;;;;5057273;28;11698;-83
2023/11/26 01:21:50;;;;;;;;;32.67;26.00;;;;;;;;5054694;28;11563;-85
2023/11/26 01:24:18;;;;;;;;;28.67;23.00;;;;;;;;5048001;28;11567;-82
2023/11/26 01:26:46;;;;;;;;;26.33;24.00;;;;;;;;5053095;28;11681;-82
2023/11/26 01:29:13;;;;;;;;;33.00;28.00;;;;;;;;5054973;28;11566;-83
2023/11/26 01:31:40;;;;;;;;;32.67;25.67;;;;;;;;5054342;28;11560;-83
2023/11/26 01:34:09;;;;;;;;;27.00;25.67;;;;;;;;5052614;28;11570;-82
2023/11/26 01:36:37;;;;;;;;;25.33;25.33;;;;;;;;5049837;28;11554;-82
2023/11/26 01:39:07;;;;;;;;;28.00;25.00;;;;;;;;5050179;28;11587;-82
2023/11/26 01:41:34;;;;;;;;;24.67;24.67;;;;;;;;5049553;28;11546;-82
2023/11/26 01:44:02;;;;;;;;;24.67;24.00;;;;;;;;5050340;28;12376;-82
2023/11/26 01:46:29;;;;;;;;;28.67;25.33;;;;;;;;5048496;28;12386;-83
2023/11/26 01:48:57;;;;;;;;;25.67;24.00;;;;;;;;5050034;28;11627;-82
2023/11/26 01:51:27;;;;;;;;;21.33;21.33;;;;;;;;5049071;28;11579;-82
2023/11/26 01:53:55;;;;;;;;;22.33;19.67;;;;;;;;5047672;28;12439;-82
2023/11/26 01:56:23;;;;;;;;;22.67;22.00;;;;;;;;5049738;28;11715;-80
2023/11/26 01:58:50;;;;;;;;;26.00;21.00;;;;;;;;5049755;28;11681;-81
2023/11/26 02:01:25;;;;;;;;;31.67;28.33;;;;;;;;5048771;28;12252;-81
2023/11/26 02:03:55;;;;;;;;;28.33;26.00;;;;;;;;5050292;28;8843;-83
2023/11/26 02:06:22;;;;;;;;;23.00;23.00;;;;;;;;5049675;28;12351;-82
2023/11/26 02:08:51;;;;;;;;;24.33;23.00;;;;;;;;5049728;28;11573;-83
2023/11/26 02:11:18;;;;;;;;;24.67;20.67;;;;;;;;5040469;28;11578;-81
2023/11/26 02:13:46;;;;;;;;;22.67;19.67;;;;;;;;5049419;28;11545;-82
2023/11/26 02:16:14;;;;;;;;;27.00;24.67;;;;;;;;5050001;28;11715;-84
2023/11/26 02:18:42;;;;;;;;;26.67;23.67;;;;;;;;5049843;28;11589;-83
2023/11/26 02:21:09;;;;;;;;;30.00;28.33;;;;;;;;5050325;28;11559;-83
2023/11/26 02:23:37;;;;;;;;;32.33;27.33;;;;;;;;5041619;28;8976;-83
2023/11/26 02:26:06;;;;;;;;;28.67;28.67;;;;;;;;5049644;28;8993;-83
2023/11/26 02:28:33;;;;;;;;;31.00;29.33;;;;;;;;5042875;28;8872;-82
2023/11/26 02:31:01;;;;;;;;;27.33;26.33;;;;;;;;5045884;28;11671;-83
2023/11/26 02:33:28;;;;;;;;;30.67;28.00;;;;;;;;5049810;28;11578;-83
2023/11/26 02:35:55;;;;;;;;;28.00;26.67;;;;;;;;5008638;28;1150279;-82
2023/11/26 02:38:23;;;;;;;;;25.33;22.67;;;;;;;;5050721;28;8966;-81
2023/11/26 02:40:50;;;;;;;;;31.67;28.33;;;;;;;;5050406;28;11585;-82
2023/11/26 02:43:19;;;;;;;;;32.67;28.33;;;;;;;;5043588;28;11578;-81
2023/11/26 02:45:50;;;;;;;;;30.67;28.67;;;;;;;;5045998;28;11583;-81
2023/11/26 02:48:19;;;;;;;;;28.67;24.33;;;;;;;;5043404;28;9652;-80
2023/11/26 02:50:47;;;;;;;;;30.33;24.00;;;;;;;;5051123;28;11549;-81
2023/11/26 02:53:16;;;;;;;;;26.00;23.33;;;;;;;;5051945;28;11688;-80
2023/11/26 02:55:44;;;;;;;;;23.33;21.00;;;;;;;;5052597;28;11579;-81
2023/11/26 02:58:13;;;;;;;;;26.33;23.67;;;;;;;;5053804;28;11568;-81
2023/11/26 03:00:43;;;;;;;;;27.00;26.67;;;;;;;;5049763;28;8787;-81
2023/11/26 03:03:12;;;;;;;;;26.00;26.00;;;;;;;;5053697;28;8886;-80
2023/11/26 03:05:40;;;;;;;;;24.00;22.00;;;;;;;;5054202;28;8862;-79
2023/11/26 03:08:21;;;;;;;;;23.00;19.33;;;;;;;;5054440;28;11560;-80
2023/11/26 03:13:33;;;;;;;;;23.00;23.00;;;;;;;;5050184;28;11498;-81
2023/11/26 03:16:01;;;;;;;;;32.33;29.00;;;;;;;;5050281;28;12437;-83
2023/11/26 03:18:29;;;;;;;;;26.67;25.00;;;;;;;;5051477;28;8855;-82
2023/11/26 03:20:57;;;;;;;;;26.00;26.00;;;;;;;;5052626;28;8890;-83
2023/11/26 03:23:27;;;;;;;;;17.33;17.33;;;;;;;;5055607;28;11597;-80
2023/11/26 03:25:55;;;;;;;;;29.33;29.33;;;;;;;;5072396;28;8846;-81
2023/11/26 03:28:25;;;;;;;;;32.67;29.33;;;;;;;;5054867;28;8869;-83
2023/11/26 03:30:52;;;;;;;;;28.67;26.67;;;;;;;;5050472;28;8803;-81
2023/11/26 03:33:21;;;;;;;;;33.33;28.33;;;;;;;;5049391;28;8870;-81
2023/11/26 03:35:50;;;;;;;;;28.33;27.00;;;;;;;;5048836;28;9013;-81
2023/11/26 03:38:18;;;;;;;;;25.33;22.33;;;;;;;;5040994;28;8920;-82
2023/11/26 03:40:45;;;;;;;;;35.00;31.00;;;;;;;;5048638;28;8944;-80
2023/11/26 03:43:15;;;;;;;;;38.33;34.00;;;;;;;;5034402;28;9012;-81
2023/11/26 03:45:42;;;;;;;;;43.67;41.33;;;;;;;;5048740;28;8859;-82
2023/11/26 03:48:10;;;;;;;;;42.67;37.33;;;;;;;;5049054;28;8889;-83
2023/11/26 03:50:38;;;;;;;;;40.33;35.67;;;;;;;;5034391;28;8884;-82
2023/11/26 03:53:05;;;;;;;;;29.67;28.00;;;;;;;;5043148;28;8970;-81
2023/11/26 03:55:33;;;;;;;;;28.67;25.33;;;;;;;;5049222;28;8873;-82
2023/11/26 03:58:00;;;;;;;;;30.67;27.67;;;;;;;;5049968;28;8862;-81
2023/11/26 04:00:28;;;;;;;;;33.67;33.33;;;;;;;;5050748;28;8884;-83
2023/11/26 04:02:55;;;;;;;;;35.67;34.00;;;;;;;;5053433;28;8855;-80
2023/11/26 04:05:22;;;;;;;;;29.33;29.33;;;;;;;;5050975;28;8889;-82
2023/11/26 04:07:51;;;;;;;;;30.33;28.33;;;;;;;;5048556;28;9001;-83
2023/11/26 04:10:18;;;;;;;;;29.67;29.67;;;;;;;;5048336;28;8871;-83
2023/11/26 04:12:46;;;;;;;;;28.33;26.00;;;;;;;;5048384;28;8924;-82
2023/11/26 04:15:19;;;;;;;;;26.67;21.67;;;;;;;;5044824;28;8856;-83
2023/11/26 04:17:46;;;;;;;;;22.67;22.33;;;;;;;;5038592;28;8859;-84
2023/11/26 04:20:14;;;;;;;;;22.33;21.00;;;;;;;;5048597;28;8842;-84
2023/11/26 04:22:41;;;;;;;;;21.00;21.00;;;;;;;;5048798;28;8921;-83
2023/11/26 04:25:10;;;;;;;;;21.33;21.33;;;;;;;;5047921;28;8840;-83
2023/11/26 04:27:38;;;;;;;;;25.67;20.33;;;;;;;;5048622;28;8862;-81
2023/11/26 04:30:08;;;;;;;;;21.33;21.33;;;;;;;;5039607;28;8844;-80
2023/11/26 04:32:35;;;;;;;;;24.00;23.00;;;;;;;;5048854;28;8871;-81
2023/11/26 04:35:03;;;;;;;;;23.67;23.67;;;;;;;;5048751;28;8895;-81
2023/11/26 04:37:30;;;;;;;;;25.00;22.67;;;;;;;;5048456;28;8870;-83
2023/11/26 04:39:57;;;;;;;;;27.00;24.33;;;;;;;;5048789;28;8970;-81
2023/11/26 04:42:26;;;;;;;;;25.67;22.33;;;;;;;;5049296;28;8867;-79
2023/11/26 04:44:53;;;;;;;;;17.67;17.67;;;;;;;;5050906;28;8854;-82
2023/11/26 04:47:21;;;;;;;;;22.33;22.33;;;;;;;;5050449;28;8855;-81
2023/11/26 04:49:48;;;;;;;;;23.00;23.00;;;;;;;;5051050;28;8857;-82
2023/11/26 04:52:15;;;;;;;;;20.67;19.33;;;;;;;;5052210;28;8839;-81
2023/11/26 04:54:42;;;;;;;;;20.00;20.00;;;;;;;;5053280;28;8875;-80
2023/11/26 04:57:09;;;;;;;;;25.00;21.00;;;;;;;;5053289;28;11601;-81
2023/11/26 04:59:39;;;;;;;;;30.67;27.00;;;;;;;;5048428;28;8835;-81
2023/11/26 05:02:09;;;;;;;;;29.00;26.33;;;;;;;;5045955;28;8796;-80
2023/11/26 05:04:37;;;;;;;;;26.00;25.33;;;;;;;;5049082;28;11584;-83
2023/11/26 05:07:05;;;;;;;;;24.33;22.00;;;;;;;;5050045;28;9610;-83
2023/11/26 05:09:32;;;;;;;;;22.67;22.67;;;;;;;;5051386;28;8879;-82
2023/11/26 05:12:03;;;;;;;;;35.67;26.67;;;;;;;;5049829;28;8835;-81
2023/11/26 05:14:30;;;;;;;;;23.33;21.33;;;;;;;;5048138;28;8828;-83
2023/11/26 05:16:59;;;;;;;;;26.00;22.33;;;;;;;;5047301;28;8873;-82
2023/11/26 05:19:31;;;;;;;;;26.33;25.33;;;;;;;;5047889;28;8889;-80
2023/11/26 05:21:58;;;;;;;;;24.00;24.00;;;;;;;;5038821;28;8857;-83
2023/11/26 05:24:26;;;;;;;;;26.33;25.33;;;;;;;;5048004;28;8950;-84
2023/11/26 05:26:53;;;;;;;;;27.67;25.00;;;;;;;;5050720;28;8893;-82
2023/11/26 05:29:20;;;;;;;;;29.67;27.33;;;;;;;;5042056;28;8847;-80
2023/11/26 05:31:48;;;;;;;;;26.33;26.00;;;;;;;;5042085;28;11501;-81
2023/11/26 05:34:17;;;;;;;;;27.33;23.00;;;;;;;;5050984;28;8851;-82
2023/11/26 05:36:44;;;;;;;;;26.67;26.67;;;;;;;;5051158;28;8835;-83
2023/11/26 05:39:14;;;;;;;;;23.67;22.00;;;;;;;;5051270;28;8835;-83
2023/11/26 05:41:41;;;;;;;;;23.67;21.33;;;;;;;;5051069;28;11600;-80
2023/11/26 05:44:09;;;;;;;;;29.00;23.33;;;;;;;;5050731;28;8859;-82
2023/11/26 05:46:37;;;;;;;;;21.00;21.00;;;;;;;;5050608;28;8870;-81
2023/11/26 05:49:04;;;;;;;;;24.33;24.33;;;;;;;;5047807;28;8988;-83
2023/11/26 05:51:33;;;;;;;;;28.00;26.00;;;;;;;;5045123;28;8863;-81
2023/11/26 05:54:02;;;;;;;;;30.33;29.00;;;;;;;;5050400;28;9640;-83
2023/11/26 05:56:29;;;;;;;;;31.00;27.00;;;;;;;;5050581;28;8851;-81
2023/11/26 05:58:59;;;;;;;;;25.00;24.33;;;;;;;;5050579;28;8940;-82
2023/11/26 06:01:28;;;;;;;;;25.33;23.67;;;;;;;;5050171;28;8904;-81
2023/11/26 06:03:55;;;;;;;;;21.00;18.00;;;;;;;;5049870;28;8855;-82
2023/11/26 06:06:22;;;;;;;;;20.33;20.33;;;;;;;;5051090;28;8875;-83
2023/11/26 06:08:51;;;;;;;;;12.00;11.00;;;;;;;;5050246;28;8871;-82
2023/11/26 06:11:18;;;;;;;;;25.67;24.67;;;;;;;;5050663;28;8989;-82
2023/11/26 06:13:45;;;;;;;;;24.33;24.33;;;;;;;;5050670;28;8977;-83
2023/11/26 06:16:13;;;;;;;;;21.67;17.33;;;;;;;;5050508;28;8871;-81
2023/11/26 06:18:40;;;;;;;;;22.33;22.33;;;;;;;;5050901;28;8881;-81
2023/11/26 06:21:07;;;;;;;;;25.67;23.00;;;;;;;;5053468;28;8862;-81
2023/11/26 06:23:35;;;;;;;;;20.00;20.00;;;;;;;;5053943;28;8847;-80
2023/11/26 06:26:03;;;;;;;;;23.67;21.67;;;;;;;;5062194;28;8963;-77
2023/11/26 06:28:31;;;;;;;;;22.00;22.00;;;;;;;;5042094;28;8882;-82
2023/11/26 06:31:01;;;;;;;;;34.67;30.00;;;;;;;;5049193;28;8807;-80
2023/11/26 06:33:29;;;;;;;;;23.67;23.67;;;;;;;;5051719;28;8851;-80
2023/11/26 06:35:56;;;;;;;;;37.67;28.67;;;;;;;;5052456;28;8867;-81
2023/11/26 06:38:24;;;;;;;;;31.67;30.00;;;;;;;;5055014;28;8866;-82
2023/11/26 06:40:51;;;;;;;;;29.33;24.00;;;;;;;;5049475;28;8863;-81
2023/11/26 06:43:20;;;;;;;;;21.67;21.67;;;;;;;;5052981;28;8871;-82
2023/11/26 06:45:47;;;;;;;;;36.00;30.00;;;;;;;;5051927;28;8855;-82
2023/11/26 06:48:15;;;;;;;;;22.33;20.00;;;;;;;;5054841;28;9005;-82
2023/11/26 06:50:42;;;;;;;;;35.67;30.33;;;;;;;;5051635;28;8889;-82
2023/11/26 06:53:09;;;;;;;;;30.33;27.67;;;;;;;;5046044;28;8969;-81
2023/11/26 06:55:36;;;;;;;;;32.00;30.33;;;;;;;;5051149;28;8851;-77
2023/11/26 06:58:04;;;;;;;;;33.33;29.67;;;;;;;;5050346;28;8859;-77
2023/11/26 07:00:32;;;;;;;;;27.67;27.33;;;;;;;;5050976;28;9609;-76
2023/11/26 07:03:02;;;;;;;;;31.00;27.00;;;;;;;;5055952;28;8851;-76
2023/11/26 07:05:32;;;;;;;;;28.67;27.67;;;;;;;;5048658;28;8843;-75
2023/11/26 07:08:02;;;;;;;;;34.33;30.33;;;;;;;;5048658;28;8886;-75
2023/11/26 07:10:30;;;;;;;;;25.00;25.00;;;;;;;;5048754;28;8854;-76
2023/11/26 07:12:59;;;;;;;;;31.33;30.00;;;;;;;;5048020;28;8863;-76
2023/11/26 07:15:26;;;;;;;;;29.33;28.00;;;;;;;;5048705;28;8838;-76
2023/11/26 07:17:54;;;;;;;;;27.67;26.33;;;;;;;;5047972;28;8867;-77
2023/11/26 07:20:22;;;;;;;;;35.33;32.67;;;;;;;;5039848;28;9614;-77
2023/11/26 07:22:49;;;;;;;;;45.00;32.00;;;;;;;;5048050;28;8904;-77
2023/11/26 07:25:16;;;;;;;;;30.00;30.00;;;;;;;;5048799;28;8874;-78
2023/11/26 07:27:43;;;;;;;;;38.67;36.00;;;;;;;;5048440;28;8854;-77
2023/11/26 07:30:14;;;;;;;;;38.00;35.67;;;;;;;;5033600;28;8857;-75
2023/11/26 07:32:44;;;;;;;;;36.00;32.67;;;;;;;;5046963;28;8890;-77
2023/11/26 07:35:12;;;;;;;;;36.67;34.67;;;;;;;;5048660;28;8855;-78
2023/11/26 07:37:40;;;;;;;;;32.00;28.00;;;;;;;;5043780;28;8932;-78
2023/11/26 07:40:16;;;;;;;;;30.67;30.67;;;;;;;;5048227;28;8843;-75
2023/11/26 07:42:44;;;;;;;;;41.67;36.67;;;;;;;;5047615;28;8851;-80
2023/11/26 07:45:11;;;;;;;;;37.33;32.33;;;;;;;;5047807;28;8855;-78
2023/11/26 07:47:39;;;;;;;;;36.67;35.33;;;;;;;;5047700;28;8840;-79
2023/11/26 07:50:07;;;;;;;;;31.00;29.00;;;;;;;;5047622;28;8855;-77
2023/11/26 07:52:37;;;;;;;;;41.33;36.67;;;;;;;;5047868;28;8851;-76
2023/11/26 07:55:06;;;;;;;;;44.00;37.33;;;;;;;;5048597;28;8937;-78
2023/11/26 07:57:34;;;;;;;;;41.00;36.00;;;;;;;;5047826;28;8846;-77
2023/11/26 08:00:02;;;;;;;;;40.33;37.00;;;;;;;;5048137;28;8870;-78
2023/11/26 08:02:30;;;;;;;;;30.33;27.67;;;;;;;;5047606;28;8820;-78
2023/11/26 08:04:57;;;;;;;;;28.00;27.33;;;;;;;;5048140;28;8835;-76
2023/11/26 08:07:25;;;;;;;;;40.67;37.00;;;;;;;;5048052;28;8884;-77
2023/11/26 08:09:54;;;;;;;;;42.00;38.67;;;;;;;;5047865;28;8869;-77
2023/11/26 08:12:23;;;;;;;;;48.33;43.33;;;;;;;;5039866;28;9708;-76
2023/11/26 08:14:51;;;;;;;;;52.00;44.00;;;;;;;;5047801;28;8865;-73
2023/11/26 08:17:19;;;;;;;;;54.33;46.67;;;;;;;;5034554;28;8956;-79
2023/11/26 08:19:47;;;;;;;;;56.33;48.33;;;;;;;;5048044;28;8905;-79
2023/11/26 08:22:15;;;;;;;;;49.00;44.00;;;;;;;;5049304;28;8867;-78
2023/11/26 08:24:43;;;;;;;;;52.33;44.00;;;;;;;;5044848;28;8865;-76
2023/11/26 08:27:13;;;;;;;;;58.00;47.67;;;;;;;;5050189;28;8857;-77
2023/11/26 08:29:42;;;;;;;;;63.33;53.33;;;;;;;;5050592;28;8828;-81
2023/11/26 08:32:10;;;;;;;;;60.00;49.00;;;;;;;;5048973;28;8862;-80
2023/11/26 08:34:41;;;;;;;;;66.67;54.67;;;;;;;;5047222;28;8853;-77
2023/11/26 08:37:10;;;;;;;;;67.67;53.67;;;;;;;;5046808;28;8854;-77
2023/11/26 08:39:41;;;;;;;;;63.33;49.67;;;;;;;;5044746;28;8866;-76
2023/11/26 08:42:10;;;;;;;;;65.00;53.00;;;;;;;;5048226;28;8847;-75
2023/11/26 08:44:41;;;;;;;;;64.00;53.00;;;;;;;;5048833;28;8833;-77
2023/11/26 08:47:08;;;;;;;;;63.67;53.00;;;;;;;;5049683;28;8843;-78
2023/11/26 08:49:35;;;;;;;;;58.67;46.33;;;;;;;;5050360;28;8913;-76
2023/11/26 08:52:03;;;;;;;;;57.67;49.33;;;;;;;;5048277;28;8869;-76
2023/11/26 08:54:30;;;;;;;;;58.00;48.33;;;;;;;;5046108;28;8843;-78
2023/11/26 08:56:57;;;;;;;;;60.33;47.33;;;;;;;;5047157;28;8859;-77
2023/11/26 08:59:25;;;;;;;;;61.33;49.33;;;;;;;;5047382;28;8908;-77
2023/11/26 09:01:53;;;;;;;;;61.33;51.00;;;;;;;;5049429;28;8839;-78
2023/11/26 09:04:21;;;;;;;;;52.67;43.00;;;;;;;;5050809;28;8867;-77
2023/11/26 09:06:48;;;;;;;;;52.67;46.00;;;;;;;;5051135;28;8851;-77
2023/11/26 09:09:16;;;;;;;;;46.00;39.67;;;;;;;;5050883;28;8859;-79
2023/11/26 09:11:47;;;;;;;;;63.00;52.00;;;;;;;;5050728;28;8843;-75
2023/11/26 09:14:15;;;;;;;;;59.33;49.67;;;;;;;;5051079;28;8863;-79
2023/11/26 09:16:42;;;;;;;;;60.67;50.67;;;;;;;;5051181;28;8827;-75
2023/11/26 09:19:11;;;;;;;;;62.33;49.67;;;;;;;;5051470;28;8879;-77
2023/11/26 09:21:39;;;;;;;;;57.67;46.67;;;;;;;;5052078;28;8933;-78
2023/11/26 09:24:07;;;;;;;;;58.00;49.00;;;;;;;;5052418;28;8865;-77
2023/11/26 09:26:34;;;;;;;;;51.75;43.00;;;;;;;;5055883;28;11561;-78
2023/11/26 09:29:01;;;;;;;;;45.00;38.00;;;;;;;;5042315;28;11689;-79
2023/11/26 09:31:29;;;;;;;;;52.75;43.25;;;;;;;;5050343;28;11498;-78
2023/11/26 09:33:56;;;;;;;;;71.33;59.00;;;;;;;;5050591;28;11595;-79
2023/11/26 09:36:25;;;;;;;;;66.33;54.00;;;;;;;;5050736;28;8831;-79
2023/11/26 09:38:52;;;;;;;;;56.25;47.75;;;;;;;;5050365;28;11574;-76
2023/11/26 09:41:20;;;;;;;;;44.50;42.00;;;;;;;;5050784;28;11570;-75
2023/11/26 09:43:47;;;;;;;;;52.25;41.25;;;;;;;;5050568;28;11616;-81
2023/11/26 09:46:16;;;;;;;;;54.75;43.75;;;;;;;;5050634;28;11700;-80
2023/11/26 09:48:44;;;;;;;;;25.25;24.00;;;;;;;;5050511;28;11598;-75
2023/11/26 09:51:12;;;;;;;;;35.75;34.00;;;;;;;;5050477;28;11548;-79
2023/11/26 09:53:41;;;;;;;;;55.50;46.00;;;;;;;;5050483;28;11583;-78
2023/11/26 09:56:11;;;;;;;;;48.50;42.50;;;;;;;;5035808;28;11730;-79
2023/11/26 09:58:39;;;;;;;;;30.25;30.25;;;;;;;;5042360;28;11569;-77
2023/11/26 10:01:07;;;;;;;;;35.00;33.00;;;;;;;;5050563;28;11937;-79
2023/11/26 10:03:55;;;;;;;;;40.25;36.25;;;;;;;;5051349;28;11693;-81
2023/11/26 10:06:23;;;;;;;;;41.75;40.00;;;;;;;;5050729;28;11678;-79
2023/11/26 10:08:52;;;;;;;;;39.25;34.00;;;;;;;;5050231;28;11565;-76
2023/11/26 10:11:24;;;;;;;;;46.00;41.25;;;;;;;;5050452;28;11595;-78
2023/11/26 10:13:55;;;;;;;;;50.75;42.25;;;;;;;;5052219;28;11572;-77
2023/11/26 10:16:32;;;;;;;;;42.00;38.50;;;;;;;;5053794;28;12401;-78
2023/11/26 10:19:02;;;;;;;;;54.00;40.25;;;;;;;;5043728;28;11566;-77
2023/11/26 10:21:35;;;;;;;;;49.25;43.00;;;;;;;;5052931;28;11603;-76
2023/11/26 10:24:04;;;;;;;;;55.50;46.75;;;;;;;;5050853;28;11724;-78
2023/11/26 10:26:33;;;;;;;;;78.67;62.33;;;;;;;;5048164;28;11721;-80
2023/11/26 10:29:08;;;;;;;;;45.50;40.75;;;;;;;;5041566;28;8880;-76
2023/11/26 10:31:35;;;;;;;;;62.50;49.75;;;;;;;;5051402;28;11517;-76
2023/11/26 10:34:14;;;;;;;;;40.00;36.75;;;;;;;;5051356;28;11606;-76
2023/11/26 10:36:41;;;;;;;;;39.75;37.00;;;;;;;;5042744;28;11658;-75
2023/11/26 10:39:12;;;;;;;;;58.25;48.25;;;;;;;;5048626;28;11582;-76
2023/11/26 10:41:39;;;;;;;;;68.00;51.75;;;;;;;;5049116;28;11579;-78
2023/11/26 10:44:06;;;;;;;;;74.00;53.50;;;;;;;;5048754;28;11605;-76
2023/11/26 10:46:35;;;;;;;;;56.75;45.75;;;;;;;;5049154;28;11612;-73
2023/11/26 10:49:14;;;;;;;;;23.75;20.75;;;;;;;;5048864;28;12393;-78
2023/11/26 10:51:46;;;;;;;;;23.00;23.00;;;;;;;;5048761;28;11571;-78
2023/11/26 10:54:25;;;;;;;;;14.25;13.25;;;;;;;;5048881;28;11587;-79
2023/11/26 10:56:57;;;;;;;;;24.75;21.50;;;;;;;;5048304;28;11548;-75
2023/11/26 10:59:26;;;;;;;;;28.25;26.50;;;;;;;;5042223;28;11573;-76
2023/11/26 11:01:54;;;;;;;;;22.50;19.75;;;;;;;;5047833;28;11977;-77
2023/11/26 11:04:25;;;;;;;;;22.00;19.25;;;;;;;;5049346;28;11584;-76
2023/11/26 11:06:55;;;;;;;;;19.75;17.00;;;;;;;;5044383;28;12390;-77
2023/11/26 11:09:34;;;;;;;;;14.25;14.25;;;;;;;;5048765;28;11597;-77
2023/11/26 11:12:07;;;;;;;;;20.00;20.00;;;;;;;;5048535;28;11656;-75
2023/11/26 11:14:35;;;;;;;;;21.75;20.00;;;;;;;;5046799;28;11565;-76
2023/11/26 11:17:02;;;;;;;;;17.75;17.00;;;;;;;;5050341;28;11676;-78
2023/11/26 11:19:48;;;;;;;;;23.75;22.25;;;;;;;;5050183;28;11555;-80
2023/11/26 11:22:16;;;;;;;;;28.50;22.75;;;;;;;;5046696;28;11573;-84
2023/11/26 11:24:44;;;;;;;;;23.00;21.75;;;;;;;;5049967;28;11596;-82
2023/11/26 11:27:12;;;;;;;;;23.25;21.25;;;;;;;;5049186;28;11566;-79
2023/11/26 11:29:42;;;;;;;;;24.25;20.50;;;;;;;;5041066;28;11647;-79
2023/11/26 11:32:09;;;;;;;;;28.25;26.25;;;;;;;;5048427;28;11541;-79
2023/11/26 11:34:37;;;;;;;;;21.75;21.75;;;;;;;;5048751;28;11570;-79
2023/11/26 11:37:08;;;;;;;;;28.25;25.25;;;;;;;;5047980;28;11551;-78
2023/11/26 11:39:49;;;;;;;;;21.25;18.25;;;;;;;;5048659;28;11539;-79
2023/11/26 11:42:20;;;;;;;;;22.50;18.00;;;;;;;;5048712;28;11654;-78
2023/11/26 11:44:49;;;;;;;;;19.50;18.50;;;;;;;;5041267;28;12696;-76
2023/11/26 11:47:41;;;;;;;;;17.00;17.00;;;;;;;;5048503;28;12418;-81
2023/11/26 11:50:09;;;;;;;;;15.75;15.75;;;;;;;;5049307;28;11628;-80
2023/11/26 11:52:38;;;;;;;;;19.50;19.50;;;;;;;;5050014;28;11484;-81
2023/11/26 11:55:36;;;;;;;;;18.25;18.25;;;;;;;;5051097;28;11686;-79
2023/11/26 11:58:14;;;;;;;;;20.25;18.50;;;;;;;;5045727;28;11628;-78
2023/11/26 12:00:46;;;;;;;;;15.75;15.75;;;;;;;;5050605;28;11529;-76
2023/11/26 12:03:17;;;;;;;;;17.50;15.00;;;;;;;;5056996;28;11504;-78
2023/11/26 12:05:44;;;;;;;;;14.50;14.50;;;;;;;;5056226;28;11583;-79
2023/11/26 12:08:15;;;;;;;;;18.50;17.50;;;;;;;;5055098;28;11618;-80
2023/11/26 12:10:44;;;;;;;;;13.75;13.75;;;;;;;;5047572;28;11487;-80
2023/11/26 12:13:11;;;;;;;;;12.25;10.25;;;;;;;;5055314;28;11502;-76
2023/11/26 12:15:39;;;;;;;;;14.75;13.00;;;;;;;;5056222;28;11481;-75
2023/11/26 12:18:07;;;;;;;;;13.25;10.25;;;;;;;;5044864;28;11533;-77
2023/11/26 12:20:35;;;;;;;;;36.25;30.25;;;;;;;;5049916;28;11484;-78
2023/11/26 12:23:02;;;;;;;;;43.25;36.00;;;;;;;;5049916;28;11532;-78
2023/11/26 12:25:33;;;;;;;;;17.50;17.50;;;;;;;;5048874;28;11576;-78
2023/11/26 12:28:07;;;;;;;;;66.00;52.00;;;;;;;;5043541;28;11489;-81
2023/11/26 12:30:36;;;;;;;;;36.25;29.75;;;;;;;;5043656;28;11494;-78
2023/11/26 12:33:04;;;;;;;;;46.00;38.00;;;;;;;;5047012;28;11541;-79
2023/11/26 12:35:33;;;;;;;;;27.25;23.00;;;;;;;;5049860;28;11496;-75
2023/11/26 12:38:04;;;;;;;;;27.25;21.25;;;;;;;;5051105;28;11631;-78
2023/11/26 12:40:32;;;;;;;;;34.00;27.75;;;;;;;;5051932;28;11618;-79
2023/11/26 12:43:00;;;;;;;;;10.00;10.00;;;;;;;;5051649;28;11304;-76
2023/11/26 12:45:29;;;;;;;;;6.00;6.00;;;;;;;;5052953;28;10816;-76
2023/11/26 12:47:57;;;;;;;;;8.75;8.75;;;;;;;;5053962;28;11454;-76
2023/11/26 12:50:25;;;;;;;;;4.00;4.00;;;;;;;;5051472;28;10725;-77
2023/11/26 12:52:53;;;;;;;;;11.75;8.50;;;;;;;;5042513;28;10608;-76
2023/11/26 12:55:20;;;;;;;;;3.00;3.00;;;;;;;;5051203;28;10941;-76
2023/11/26 12:57:48;;;;;;;;;12.50;7.00;;;;;;;;5043272;28;10863;-75
2023/11/26 13:00:16;;;;;;;;;7.25;7.00;;;;;;;;5050416;28;10968;-75
2023/11/26 13:02:46;;;;;;;;;9.00;6.00;;;;;;;;5051298;28;11293;-75
2023/11/26 13:05:28;;;;;;;;;7.75;7.50;;;;;;;;5046326;28;11322;-76
2023/11/26 13:07:56;;;;;;;;;8.75;8.75;;;;;;;;5050787;28;11117;-77
2023/11/26 13:10:42;;;;;;;;;10.75;9.00;;;;;;;;5050638;28;11430;-75
2023/11/26 13:13:12;;;;;;;;;6.75;6.75;;;;;;;;5050696;28;12262;-76
2023/11/26 13:15:41;;;;;;;;;9.25;9.25;;;;;;;;5051159;28;11443;-76
2023/11/26 13:18:12;;;;;;;;;9.00;9.00;;;;;;;;5048971;28;11450;-76
2023/11/26 13:20:40;;;;;;;;;13.50;9.00;;;;;;;;5044275;28;11541;-76
2023/11/26 13:23:08;;;;;;;;;8.75;8.75;;;;;;;;5046656;28;11556;-76
2023/11/26 13:25:35;;;;;;;;;10.25;7.50;;;;;;;;5051514;28;11491;-75
2023/11/26 13:28:06;;;;;;;;;8.50;7.00;;;;;;;;5049863;28;11435;-76
2023/11/26 13:30:37;;;;;;;;;9.25;7.00;;;;;;;;5050817;28;11389;-76
2023/11/26 13:33:05;;;;;;;;;8.25;7.00;;;;;;;;5050740;28;11574;-78
2023/11/26 13:35:34;;;;;;;;;8.00;8.00;;;;;;;;5050897;28;11062;-77
2023/11/26 13:38:02;;;;;;;;;9.50;9.50;;;;;;;;5050706;28;11246;-78
2023/11/26 13:40:29;;;;;;;;;8.00;8.00;;;;;;;;5050792;28;12248;-74
2023/11/26 13:42:57;;;;;;;;;9.00;7.00;;;;;;;;5051271;28;11441;-75
2023/11/26 13:45:24;;;;;;;;;8.50;8.50;;;;;;;;5052392;28;11255;-75
2023/11/26 13:47:54;;;;;;;;;2.25;1.00;;;;;;;;5048900;28;12195;-74
2023/11/26 13:50:21;;;;;;;;;8.75;8.25;;;;;;;;5051997;28;10950;-76
2023/11/26 13:52:50;;;;;;;;;13.00;12.25;;;;;;;;5052793;28;11225;-76
2023/11/26 13:55:18;;;;;;;;;17.50;12.50;;;;;;;;5053018;28;11459;-75
2023/11/26 13:57:45;;;;;;;;;14.00;12.25;;;;;;;;5053004;28;11619;-75
2023/11/26 14:00:13;;;;;;;;;12.00;10.25;;;;;;;;5048861;28;11612;-75
2023/11/26 14:02:40;;;;;;;;;13.75;13.75;;;;;;;;5050765;28;11506;-78
2023/11/26 14:05:12;;;;;;;;;10.50;10.50;;;;;;;;5049814;28;12282;-75
2023/11/26 14:07:40;;;;;;;;;14.50;14.50;;;;;;;;5052116;28;11467;-78
2023/11/26 14:10:13;;;;;;;;;12.75;12.75;;;;;;;;5051950;28;11498;-77
2023/11/26 14:12:41;;;;;;;;;15.25;15.25;;;;;;;;5049752;28;11519;-76
2023/11/26 14:15:10;;;;;;;;;16.25;14.00;;;;;;;;5049464;28;11498;-76
2023/11/26 14:17:39;;;;;;;;;13.00;10.75;;;;;;;;5049323;28;11513;-75
2023/11/26 14:20:10;;;;;;;;;14.00;12.50;;;;;;;;5049618;28;11506;-75
2023/11/26 14:22:39;;;;;;;;;16.25;16.25;;;;;;;;5049881;28;11471;-76
2023/11/26 14:25:07;;;;;;;;;12.50;10.50;;;;;;;;5049082;28;11560;-76
2023/11/26 14:27:36;;;;;;;;;9.75;9.00;;;;;;;;5048769;28;11505;-76
2023/11/26 14:30:04;;;;;;;;;6.75;6.00;;;;;;;;5039959;28;11505;-76
2023/11/26 14:32:31;;;;;;;;;13.00;10.50;;;;;;;;5049216;28;11554;-75
2023/11/26 14:34:58;;;;;;;;;12.00;9.00;;;;;;;;5048896;28;11491;-75